Time;durP1;ratioP1;P1;durP2;ratioP2;P2;SDS_P1;SDS_P2;PMS_P1;PMS_P2;Temp;Humidity;BMP_temperature;BMP_pressure;BME280_temperature;BME280_humidity;BME280_pressure;Samples;Min_cycle;Max_cycle;Signal;HPM_P1;HPM_P2
2023/08/31 00:00:53;;;;;;;4.88;2.80;;;10.80;99.90;;;;;;4958147;28;20113;-84
2023/08/31 00:03:19;;;;;;;6.57;3.00;;;10.80;99.90;;;;;;4959064;28;20418;-85
2023/08/31 00:05:45;;;;;;;5.35;2.95;;;10.80;99.90;;;;;;4956582;28;20526;-84
2023/08/31 00:08:17;;;;;;;5.30;3.15;;;10.80;99.90;;;;;;4959969;28;20058;-85
2023/08/31 00:10:43;;;;;;;4.07;2.60;;;10.80;99.90;;;;;;4973873;28;20138;-84
2023/08/31 00:13:08;;;;;;;4.35;2.80;;;10.90;99.90;;;;;;4958019;28;20135;-85
2023/08/31 00:15:35;;;;;;;4.80;2.80;;;10.90;99.90;;;;;;4955997;28;20520;-84
2023/08/31 00:18:04;;;;;;;7.63;2.67;;;10.90;99.90;;;;;;4958979;28;20397;-85
2023/08/31 00:20:31;;;;;;;8.38;2.92;;;10.90;99.90;;;;;;4942421;28;20038;-85
2023/08/31 00:22:56;;;;;;;7.15;2.80;;;10.90;99.90;;;;;;4959917;28;20038;-85
2023/08/31 00:25:22;;;;;;;5.25;2.72;;;10.90;99.90;;;;;;4959827;28;20461;-84
2023/08/31 00:27:48;;;;;;;3.28;2.25;;;10.90;99.90;;;;;;4942391;28;20038;-84
2023/08/31 00:30:14;;;;;;;3.63;2.20;;;10.90;99.90;;;;;;4974332;28;20079;-84
2023/08/31 00:32:42;;;;;;;4.00;2.25;;;10.90;99.90;;;;;;4958132;28;20355;-84
2023/08/31 00:35:08;;;;;;;4.38;2.55;;;10.90;99.90;;;;;;4960062;28;20133;-84
2023/08/31 00:37:38;;;;;;;3.97;2.00;;;10.80;99.90;;;;;;4941633;28;20121;-84
2023/08/31 00:40:04;;;;;;;3.10;1.80;;;10.80;99.90;;;;;;4975095;28;20034;-84
2023/08/31 00:42:31;;;;;;;3.42;2.00;;;10.80;99.90;;;;;;4943108;28;20460;-84
2023/08/31 00:44:57;;;;;;;4.20;2.38;;;10.80;99.90;;;;;;4958789;28;20046;-85
2023/08/31 00:47:31;;;;;;;4.53;1.90;;;10.70;99.90;;;;;;4960815;28;20053;-85
2023/08/31 00:49:57;;;;;;;3.35;2.05;;;10.70;99.90;;;;;;4944348;28;20378;-85
2023/08/31 00:52:24;;;;;;;5.32;2.10;;;10.70;99.90;;;;;;4959639;28;20357;-84
2023/08/31 00:54:52;;;;;;;2.65;1.88;;;10.60;99.90;;;;;;4957171;28;20561;-84
2023/08/31 00:57:18;;;;;;;3.35;1.85;;;10.60;99.90;;;;;;4940346;28;20511;-85
2023/08/31 00:59:44;;;;;;;3.70;1.90;;;10.60;99.90;;;;;;4953514;28;20361;-84
2023/08/31 01:02:27;;;;;;;3.80;1.77;;;10.50;99.90;;;;;;4957728;28;20186;-85
2023/08/31 01:05:05;;;;;;;3.33;2.17;;;10.50;99.90;;;;;;4970827;28;20379;-84
2023/08/31 01:07:52;;;;;;;3.33;1.88;;;10.40;99.90;;;;;;4958702;28;20174;-85
2023/08/31 01:10:32;;;;;;;4.43;1.92;;;10.40;99.90;;;;;;4956703;28;20062;-85
2023/08/31 01:13:11;;;;;;;6.57;2.25;;;10.30;99.90;;;;;;4957793;28;20060;-84
2023/08/31 01:15:40;;;;;;;3.65;1.70;;;10.30;99.90;;;;;;4952740;28;20137;-85
2023/08/31 01:18:09;;;;;;;4.70;2.00;;;10.20;99.90;;;;;;4975397;28;20394;-85
2023/08/31 01:20:47;;;;;;;2.83;1.83;;;10.20;99.90;;;;;;4962245;28;20576;-85
2023/08/31 01:23:18;;;;;;;4.15;1.73;;;10.10;99.90;;;;;;4959670;28;20092;-84
2023/08/31 01:25:45;;;;;;;2.90;1.73;;;10.10;99.90;;;;;;4945850;28;20073;-85
2023/08/31 01:28:11;;;;;;;4.22;2.17;;;10.00;99.90;;;;;;4970377;28;20081;-85
2023/08/31 01:30:37;;;;;;;4.28;2.03;;;10.00;99.90;;;;;;4955560;28;20071;-85
2023/08/31 01:33:03;;;;;;;5.63;2.08;;;10.00;99.90;;;;;;4959829;28;20275;-85
2023/08/31 01:35:53;;;;;;;4.60;2.10;;;10.00;99.90;;;;;;4974756;28;20073;-85
2023/08/31 01:38:25;;;;;;;7.75;2.30;;;10.00;99.90;;;;;;4943800;28;20085;-85
2023/08/31 01:41:01;;;;;;;3.55;2.42;;;9.90;99.90;;;;;;4959550;28;20042;-84
2023/08/31 01:43:33;;;;;;;5.93;2.00;;;9.90;99.90;;;;;;4945419;28;20084;-85
2023/08/31 01:45:59;;;;;;;3.58;1.90;;;9.90;99.90;;;;;;4959532;28;20580;-85
2023/08/31 01:48:25;;;;;;;4.68;1.92;;;9.90;99.90;;;;;;4946511;28;20506;-86
2023/08/31 01:50:51;;;;;;;3.17;2.00;;;9.90;99.90;;;;;;4956762;28;20038;-84
2023/08/31 01:53:16;;;;;;;5.75;2.05;;;9.80;99.90;;;;;;4963082;28;20592;-85
2023/08/31 01:55:45;;;;;;;3.55;1.85;;;9.80;99.90;;;;;;4974871;28;20066;-85
2023/08/31 01:58:11;;;;;;;4.78;1.98;;;9.70;99.90;;;;;;4960632;28;20436;-86
2023/08/31 02:00:38;;;;;;;5.88;2.20;;;9.70;99.90;;;;;;4957700;28;20049;-85
2023/08/31 02:03:04;;;;;;;4.00;1.92;;;9.70;99.90;;;;;;4967598;28;20030;-86
2023/08/31 02:05:30;;;;;;;5.13;1.88;;;9.70;99.90;;;;;;4976503;28;20042;-85
2023/08/31 02:07:55;;;;;;;5.03;2.05;;;9.70;99.90;;;;;;4956148;28;20078;-86
2023/08/31 02:10:21;;;;;;;3.88;1.70;;;9.70;99.90;;;;;;4978899;28;20050;-85
2023/08/31 02:12:47;;;;;;;5.32;1.70;;;9.70;99.90;;;;;;4961781;28;20519;-85
2023/08/31 02:15:12;;;;;;;4.40;1.98;;;9.60;99.90;;;;;;4977509;28;20427;-85
2023/08/31 02:17:38;;;;;;;2.35;1.40;;;9.70;99.90;;;;;;4961699;28;20133;-85
2023/08/31 02:20:06;;;;;;;2.70;1.40;;;9.70;99.90;;;;;;4962177;28;20141;-85
2023/08/31 02:22:34;;;;;;;6.82;1.77;;;9.70;99.90;;;;;;4958976;28;20101;-85
2023/08/31 02:25:01;;;;;;;3.50;1.55;;;9.70;99.90;;;;;;4977890;28;20042;-85
2023/08/31 02:27:27;;;;;;;4.18;1.73;;;9.70;99.90;;;;;;4961961;28;20086;-86
2023/08/31 02:29:53;;;;;;;3.10;1.58;;;9.70;99.90;;;;;;4946062;28;20460;-86
2023/08/31 02:32:19;;;;;;;3.83;1.63;;;9.60;99.90;;;;;;4947368;28;20569;-85
2023/08/31 02:34:45;;;;;;;5.25;1.70;;;9.60;99.90;;;;;;4961383;28;20559;-85
2023/08/31 02:37:10;;;;;;;3.22;1.67;;;9.60;99.90;;;;;;4962928;28;20144;-85
2023/08/31 02:39:36;;;;;;;3.17;1.50;;;9.60;99.90;;;;;;4943321;28;20053;-86
2023/08/31 02:42:02;;;;;;;3.45;1.77;;;9.60;99.90;;;;;;4958071;28;20587;-86
2023/08/31 02:44:27;;;;;;;1.42;1.33;;;9.60;99.90;;;;;;4977506;28;20147;-85
2023/08/31 02:46:53;;;;;;;2.65;1.40;;;9.60;99.90;;;;;;4963097;28;20085;-86
2023/08/31 02:49:19;;;;;;;3.40;1.77;;;9.50;99.90;;;;;;4961863;28;20050;-87
2023/08/31 02:51:45;;;;;;;4.60;1.85;;;9.50;99.90;;;;;;4959563;28;20135;-86
2023/08/31 02:54:10;;;;;;;4.63;1.60;;;9.50;99.90;;;;;;4947005;28;20490;-86
2023/08/31 02:56:36;;;;;;;2.25;1.75;;;9.50;99.90;;;;;;4959824;28;20096;-85
2023/08/31 02:59:01;;;;;;;2.80;1.77;;;9.50;99.90;;;;;;4958757;28;20034;-85
2023/08/31 03:01:27;;;;;;;6.20;1.50;;;9.50;99.90;;;;;;4959550;28;20050;-85
2023/08/31 03:03:53;;;;;;;2.35;1.70;;;9.50;99.90;;;;;;4962182;28;20030;-86
2023/08/31 03:06:18;;;;;;;4.30;1.75;;;9.50;99.90;;;;;;4941634;28;20501;-86
2023/08/31 03:08:44;;;;;;;4.30;1.60;;;9.50;99.90;;;;;;4950512;28;20062;-86
2023/08/31 03:11:14;;;;;;;2.97;1.50;;;9.50;99.90;;;;;;4960255;28;20672;-85
2023/08/31 03:13:40;;;;;;;1.95;1.55;;;9.50;99.90;;;;;;4959921;28;20046;-87
2023/08/31 03:16:05;;;;;;;2.28;1.38;;;9.40;99.90;;;;;;4949253;28;20049;-86
2023/08/31 03:18:31;;;;;;;3.20;1.80;;;9.50;99.90;;;;;;4976770;28;20070;-87
2023/08/31 03:20:56;;;;;;;3.72;1.80;;;9.50;99.90;;;;;;4957650;28;20035;-86
2023/08/31 03:23:22;;;;;;;4.80;1.77;;;9.60;99.90;;;;;;4943021;28;20398;-86
2023/08/31 03:25:48;;;;;;;2.70;1.85;;;9.50;99.90;;;;;;4957792;28;20050;-85
2023/08/31 03:28:13;;;;;;;5.35;2.00;;;9.60;99.90;;;;;;4960031;28;21400;-86
2023/08/31 03:30:39;;;;;;;3.05;1.80;;;9.60;99.90;;;;;;4944430;28;20050;-86
2023/08/31 03:33:05;;;;;;;4.38;2.30;;;9.60;99.90;;;;;;4947055;28;20046;-86
2023/08/31 03:35:34;;;;;;;5.28;2.40;;;9.70;99.90;;;;;;4958858;28;20050;-87
2023/08/31 03:38:00;;;;;;;3.78;2.20;;;9.80;99.90;;;;;;4959387;28;20045;-86
2023/08/31 03:40:26;;;;;;;6.47;2.45;;;9.90;99.90;;;;;;4954602;28;20042;-86
2023/08/31 03:42:53;;;;;;;4.15;2.30;;;9.90;99.90;;;;;;4959737;28;20039;-86
2023/08/31 03:45:19;;;;;;;3.13;2.33;;;10.10;99.90;;;;;;4957115;28;20509;-86
2023/08/31 03:47:45;;;;;;;3.28;2.30;;;10.20;99.90;;;;;;4947222;28;20537;-86
2023/08/31 03:50:11;;;;;;;4.47;2.50;;;10.20;99.90;;;;;;4972573;28;20064;-86
2023/08/31 03:52:37;;;;;;;5.35;2.70;;;10.40;99.90;;;;;;4958839;28;20034;-86
2023/08/31 03:55:02;;;;;;;3.42;2.30;;;10.30;99.90;;;;;;4960474;28;20041;-86
2023/08/31 03:57:28;;;;;;;3.22;2.60;;;10.40;99.90;;;;;;4943137;28;20186;-86
2023/08/31 03:59:54;;;;;;;5.13;2.53;;;10.40;99.90;;;;;;4957370;28;20141;-86
2023/08/31 04:02:19;;;;;;;5.38;2.83;;;10.40;99.90;;;;;;4959924;28;20066;-86
2023/08/31 04:04:45;;;;;;;5.53;2.70;;;10.40;99.90;;;;;;4955131;28;20089;-86
2023/08/31 04:07:13;;;;;;;7.70;3.13;;;10.40;99.90;;;;;;4959517;28;20080;-86
2023/08/31 04:09:39;;;;;;;5.43;3.20;;;10.40;99.90;;;;;;4959277;28;20081;-86
2023/08/31 04:12:06;;;;;;;6.70;2.85;;;10.40;99.90;;;;;;4943008;28;20058;-86
2023/08/31 04:14:31;;;;;;;3.63;3.08;;;10.40;99.90;;;;;;4959161;28;20045;-86
2023/08/31 04:16:57;;;;;;;4.75;3.50;;;10.50;99.90;;;;;;4963133;28;20042;-85
2023/08/31 04:19:23;;;;;;;5.57;3.60;;;10.50;99.90;;;;;;4962992;28;20045;-86
2023/08/31 04:21:48;;;;;;;6.97;3.55;;;10.50;99.90;;;;;;4942589;28;20343;-86
2023/08/31 04:24:17;;;;;;;7.93;3.88;;;10.60;99.90;;;;;;4944610;28;20481;-87
2023/08/31 04:26:44;;;;;;;5.63;3.72;;;10.50;99.90;;;;;;4944049;28;20125;-86
2023/08/31 04:29:10;;;;;;;6.05;3.92;;;10.50;99.90;;;;;;4957218;28;20041;-86
2023/08/31 04:31:35;;;;;;;5.93;3.83;;;10.50;99.90;;;;;;4976494;28;20456;-85
2023/08/31 04:34:01;;;;;;;5.97;4.22;;;10.50;99.90;;;;;;4971744;28;20042;-85
2023/08/31 04:36:27;;;;;;;6.20;4.10;;;10.50;99.90;;;;;;4959202;28;20125;-86
2023/08/31 04:38:53;;;;;;;6.03;4.18;;;10.40;99.90;;;;;;4975067;28;20030;-85
2023/08/31 04:41:19;;;;;;;7.13;4.75;;;10.40;99.90;;;;;;4958759;28;20046;-86
2023/08/31 04:43:47;;;;;;;8.45;4.75;;;10.40;99.90;;;;;;4959546;28;20077;-86
2023/08/31 04:46:13;;;;;;;9.05;4.82;;;10.30;99.90;;;;;;4974119;28;20061;-85
2023/08/31 04:48:39;;;;;;;7.07;5.47;;;10.40;99.90;;;;;;4958810;28;20046;-86
2023/08/31 04:51:05;;;;;;;7.97;5.30;;;10.30;99.90;;;;;;4957704;28;20045;-85
2023/08/31 04:53:31;;;;;;;6.50;5.28;;;10.30;99.90;;;;;;4959452;28;20038;-86
2023/08/31 04:55:59;;;;;;;6.57;5.30;;;10.30;99.90;;;;;;4956563;28;20077;-87
2023/08/31 04:58:24;;;;;;;6.28;5.45;;;10.30;99.90;;;;;;4974475;28;20045;-87
2023/08/31 05:00:51;;;;;;;9.55;5.90;;;10.30;99.90;;;;;;4963273;28;20046;-85
2023/08/31 05:03:17;;;;;;;9.23;5.88;;;10.30;99.90;;;;;;4944030;28;20711;-87
2023/08/31 05:05:43;;;;;;;10.07;5.88;;;10.40;99.90;;;;;;4958330;28;20081;-86
2023/08/31 05:08:09;;;;;;;10.63;5.95;;;10.40;99.90;;;;;;4941700;28;20065;-86
2023/08/31 05:10:35;;;;;;;10.90;6.03;;;10.40;99.90;;;;;;4960673;28;20132;-86
2023/08/31 05:13:01;;;;;;;7.68;5.70;;;10.40;99.90;;;;;;4960390;28;20144;-86
2023/08/31 05:15:28;;;;;;;9.93;5.85;;;10.40;99.90;;;;;;4954924;28;20034;-87
2023/08/31 05:17:54;;;;;;;8.40;6.22;;;10.40;99.90;;;;;;4972131;28;20058;-86
2023/08/31 05:20:22;;;;;;;10.32;6.25;;;10.40;99.90;;;;;;4945655;28;20039;-86
2023/08/31 05:22:49;;;;;;;8.75;6.10;;;10.50;99.90;;;;;;4950664;28;20038;-86
2023/08/31 05:25:15;;;;;;;9.77;6.28;;;10.50;99.90;;;;;;4964234;28;20152;-86
2023/08/31 05:27:40;;;;;;;7.93;6.03;;;10.50;99.90;;;;;;4958797;28;20038;-86
2023/08/31 05:30:07;;;;;;;11.50;5.72;;;10.60;99.90;;;;;;4977094;28;20038;-87
2023/08/31 05:32:33;;;;;;;9.15;6.00;;;10.60;99.90;;;;;;4946178;28;20061;-87
2023/08/31 05:34:59;;;;;;;8.13;6.15;;;10.70;99.90;;;;;;4975629;28;20626;-86
2023/08/31 05:37:25;;;;;;;10.48;6.10;;;10.70;99.90;;;;;;4979247;28;20042;-86
2023/08/31 05:39:53;;;;;;;10.07;6.28;;;10.80;99.90;;;;;;4960357;28;20038;-87
2023/08/31 05:42:19;;;;;;;9.10;6.10;;;10.90;99.90;;;;;;4961270;28;20046;-86
2023/08/31 05:44:45;;;;;;;9.32;6.18;;;11.00;99.90;;;;;;4948174;28;20046;-86
2023/08/31 05:47:13;;;;;;;8.07;6.00;;;11.00;99.90;;;;;;4946830;28;20526;-86
2023/08/31 05:49:39;;;;;;;10.35;5.85;;;11.10;99.90;;;;;;4978109;28;20119;-86
2023/08/31 05:52:05;;;;;;;9.98;6.07;;;11.20;99.90;;;;;;4979923;28;20406;-86
2023/08/31 05:54:31;;;;;;;8.40;5.50;;;11.30;99.90;;;;;;4956278;28;20049;-86
2023/08/31 05:56:57;;;;;;;11.13;5.45;;;11.30;99.90;;;;;;4962609;28;20050;-86
2023/08/31 05:59:22;;;;;;;11.30;6.00;;;11.30;99.90;;;;;;4956314;28;20062;-85
2023/08/31 06:01:48;;;;;;;6.97;5.07;;;11.50;99.90;;;;;;4962211;28;20039;-86
2023/08/31 06:04:14;;;;;;;8.30;4.88;;;11.50;99.90;;;;;;4979182;28;20046;-86
2023/08/31 06:06:43;;;;;;;8.55;5.35;;;11.70;99.90;;;;;;4940999;28;20620;-86
2023/08/31 06:09:10;;;;;;;8.70;5.00;;;11.70;99.90;;;;;;4964318;28;20107;-86
2023/08/31 06:11:39;;;;;;;8.82;4.45;;;11.80;99.90;;;;;;4944763;28;20057;-86
2023/08/31 06:14:04;;;;;;;7.90;4.60;;;11.90;99.90;;;;;;4961330;28;20076;-86
2023/08/31 06:16:30;;;;;;;6.75;4.47;;;12.00;99.90;;;;;;4963129;28;20043;-86
2023/08/31 06:18:56;;;;;;;8.85;4.70;;;12.00;99.90;;;;;;4957861;28;20042;-87
2023/08/31 06:21:23;;;;;;;7.15;3.95;;;12.10;99.90;;;;;;4962366;28;20038;-87
2023/08/31 06:23:51;;;;;;;7.07;4.20;;;12.30;99.90;;;;;;4961119;28;20470;-86
2023/08/31 06:26:17;;;;;;;7.90;3.95;;;12.40;99.90;;;;;;4943858;28;20130;-85
2023/08/31 06:28:42;;;;;;;7.40;4.15;;;12.50;99.90;;;;;;4978132;28;20192;-87
2023/08/31 06:31:08;;;;;;;5.93;3.70;;;12.70;99.90;;;;;;4978509;28;20096;-87
2023/08/31 06:33:37;;;;;;;5.80;3.50;;;12.80;99.90;;;;;;4975181;28;20053;-87
2023/08/31 06:36:03;;;;;;;5.60;3.30;;;12.80;99.90;;;;;;4947674;28;20042;-86
2023/08/31 06:38:29;;;;;;;6.88;3.42;;;12.80;99.90;;;;;;4960847;28;20426;-87
2023/08/31 06:40:58;;;;;;;6.85;3.33;;;12.80;99.90;;;;;;4944990;28;20038;-87
2023/08/31 06:43:26;;;;;;;5.00;2.40;;;12.90;99.90;;;;;;4959345;28;20046;-85
2023/08/31 06:45:52;;;;;;;6.63;2.55;;;13.00;99.90;;;;;;4976169;28;20396;-85
2023/08/31 06:48:18;;;;;;;7.15;2.53;;;13.20;99.90;;;;;;4979705;28;20052;-86
2023/08/31 06:50:44;;;;;;;3.33;2.30;;;13.20;99.90;;;;;;4960677;28;20042;-87
2023/08/31 06:53:09;;;;;;;3.60;2.47;;;13.30;99.90;;;;;;4959891;28;20078;-86
2023/08/31 06:55:35;;;;;;;4.85;3.05;;;13.40;99.90;;;;;;4959602;28;20137;-86
2023/08/31 06:58:04;;;;;;;4.78;2.70;;;13.50;99.90;;;;;;4959476;28;20194;-85
2023/08/31 07:00:32;;;;;;;4.97;2.70;;;13.50;99.90;;;;;;4943496;28;20302;-86
2023/08/31 07:02:58;;;;;;;6.90;2.50;;;13.60;99.90;;;;;;4963654;28;20285;-86
2023/08/31 07:05:26;;;;;;;3.25;2.13;;;13.60;99.90;;;;;;4960002;28;20058;-86
2023/08/31 07:07:55;;;;;;;7.75;2.40;;;13.70;99.90;;;;;;4974798;28;20509;-85
2023/08/31 07:10:21;;;;;;;5.03;2.10;;;13.70;99.90;;;;;;4960762;28;20042;-86
2023/08/31 07:12:50;;;;;;;8.63;2.30;;;13.90;99.90;;;;;;4975681;28;20615;-87
2023/08/31 07:15:16;;;;;;;5.13;2.13;;;13.90;99.90;;;;;;4978089;28;20038;-85
2023/08/31 07:17:41;;;;;;;4.97;1.90;;;14.10;99.90;;;;;;4962013;28;20454;-84
2023/08/31 07:20:09;;;;;;;3.58;1.60;;;14.00;99.90;;;;;;4958066;28;20081;-86
2023/08/31 07:22:35;;;;;;;4.05;1.60;;;14.20;99.90;;;;;;4955984;28;20132;-85
2023/08/31 07:25:00;;;;;;;4.25;1.38;;;14.30;99.90;;;;;;4946000;28;20398;-86
2023/08/31 07:27:26;;;;;;;4.53;1.58;;;14.40;99.90;;;;;;4959555;28;20038;-86
2023/08/31 07:29:54;;;;;;;2.35;1.50;;;14.40;99.90;;;;;;4945227;28;20046;-85
2023/08/31 07:32:20;;;;;;;4.78;1.20;;;14.50;99.90;;;;;;4960109;28;20053;-86
2023/08/31 07:34:45;;;;;;;3.33;1.40;;;14.70;99.90;;;;;;4960414;28;20472;-84
2023/08/31 07:37:11;;;;;;;2.97;1.33;;;14.70;99.90;;;;;;4937890;28;20312;-85
2023/08/31 07:39:37;;;;;;;2.97;1.60;;;14.80;99.90;;;;;;4957275;28;20100;-86
2023/08/31 07:42:02;;;;;;;4.13;1.30;;;14.90;99.90;;;;;;4943755;28;20382;-86
2023/08/31 07:44:28;;;;;;;2.92;1.38;;;15.00;99.90;;;;;;4960983;28;20045;-86
2023/08/31 07:46:54;;;;;;;4.85;1.55;;;15.00;99.90;;;;;;4943729;28;20042;-86
2023/08/31 07:49:19;;;;;;;3.90;1.10;;;15.10;99.90;;;;;;4953054;28;20077;-85
2023/08/31 07:51:45;;;;;;;3.30;0.90;;;15.20;99.90;;;;;;4975324;28;20042;-86
2023/08/31 07:54:10;;;;;;;3.85;1.02;;;15.40;99.90;;;;;;4959616;28;20379;-87
2023/08/31 07:56:36;;;;;;;4.45;0.88;;;15.30;99.90;;;;;;4940572;28;20558;-86
2023/08/31 07:59:02;;;;;;;4.45;1.05;;;15.50;99.90;;;;;;4957196;28;20065;-85
2023/08/31 08:01:28;;;;;;;3.50;1.10;;;15.50;99.90;;;;;;4956186;28;20043;-86
2023/08/31 08:03:53;;;;;;;2.85;0.82;;;15.60;99.90;;;;;;4960608;28;20468;-86
2023/08/31 08:06:19;;;;;;;2.85;1.20;;;15.80;99.90;;;;;;4972855;28;20091;-86
2023/08/31 08:08:45;;;;;;;4.57;0.90;;;15.90;99.90;;;;;;4974469;28;20054;-85
2023/08/31 08:11:12;;;;;;;4.93;1.38;;;15.90;99.90;;;;;;4957960;28;20341;-85
2023/08/31 08:13:38;;;;;;;3.03;0.93;;;16.10;99.90;;;;;;4972434;28;20062;-86
2023/08/31 08:16:08;;;;;;;3.08;1.02;;;16.20;99.90;;;;;;4955810;28;20490;-85
2023/08/31 08:18:34;;;;;;;1.80;0.90;;;16.20;99.90;;;;;;4948832;28;20038;-87
2023/08/31 08:21:00;;;;;;;2.38;0.85;;;16.30;99.90;;;;;;4955253;28;20390;-86
2023/08/31 08:23:25;;;;;;;1.52;0.77;;;16.20;99.90;;;;;;4958604;28;20118;-86
2023/08/31 08:25:54;;;;;;;2.05;0.70;;;16.40;99.90;;;;;;4954749;28;20428;-85
2023/08/31 08:28:20;;;;;;;3.10;0.80;;;16.50;99.90;;;;;;4944726;28;20046;-87
2023/08/31 08:30:45;;;;;;;3.00;1.08;;;16.60;99.90;;;;;;4943292;28;20045;-85
2023/08/31 08:33:11;;;;;;;3.85;1.20;;;16.80;99.90;;;;;;4973559;28;20050;-86
2023/08/31 08:35:40;;;;;;;3.47;0.90;;;16.80;99.90;;;;;;4959756;28;20508;-87
2023/08/31 08:38:05;;;;;;;3.50;1.05;;;17.00;99.90;;;;;;4955413;28;20034;-86
2023/08/31 08:40:32;;;;;;;2.58;0.82;;;16.90;99.90;;;;;;4957953;28;20369;-85
2023/08/31 08:43:00;;;;;;;2.50;0.80;;;17.00;99.90;;;;;;4973727;28;20039;-85
2023/08/31 08:45:36;;;;;;;5.40;1.25;;;17.40;99.90;;;;;;4969829;28;20031;-86
2023/08/31 08:48:04;;;;;;;0.75;0.60;;;17.60;99.90;;;;;;4957546;28;20100;-86
2023/08/31 08:50:33;;;;;;;2.65;0.80;;;17.60;99.90;;;;;;4955515;28;20054;-85
2023/08/31 08:53:00;;;;;;;1.60;0.60;;;17.60;99.90;;;;;;4948559;28;20047;-86
2023/08/31 08:55:25;;;;;;;3.10;0.82;;;17.70;99.90;;;;;;4962854;28;20046;-85
2023/08/31 08:57:51;;;;;;;1.92;0.80;;;17.40;99.90;;;;;;4961739;28;20038;-85
2023/08/31 09:00:17;;;;;;;2.55;0.82;;;17.40;99.90;;;;;;4976050;28;20384;-86
2023/08/31 09:02:43;;;;;;;1.75;0.82;;;17.70;99.90;;;;;;4964558;28;20030;-84
2023/08/31 09:05:09;;;;;;;1.30;0.60;;;18.40;99.90;;;;;;4977477;28;20371;-86
2023/08/31 09:07:38;;;;;;;3.08;0.50;;;18.50;99.90;;;;;;4960831;28;20091;-86
2023/08/31 09:10:05;;;;;;;3.28;0.75;;;18.90;99.90;;;;;;4961099;28;20047;-85
2023/08/31 09:12:36;;;;;;;1.27;0.50;;;18.80;99.90;;;;;;4977218;28;20034;-85
2023/08/31 09:15:06;;;;;;;0.90;0.40;;;18.10;99.90;;;;;;4961407;28;20060;-88
2023/08/31 09:17:44;;;;;;;1.27;0.35;;;17.80;99.90;;;;;;4947314;28;20390;-86
2023/08/31 09:20:10;;;;;;;3.20;0.50;;;16.40;99.90;;;;;;4946168;28;20038;-86
2023/08/31 09:22:44;;;;;;;1.38;0.40;;;15.50;99.90;;;;;;4947506;28;20125;-84
2023/08/31 09:25:10;;;;;;;2.05;0.60;;;15.00;99.90;;;;;;4961395;28;20182;-84
2023/08/31 09:27:40;;;;;;;0.85;0.60;;;15.00;99.90;;;;;;4961678;28;20053;-86
2023/08/31 09:30:08;;;;;;;2.67;0.47;;;15.10;99.90;;;;;;4947789;28;20122;-86
2023/08/31 09:32:33;;;;;;;0.85;0.38;;;14.90;99.90;;;;;;4962168;28;20030;-86
2023/08/31 09:35:02;;;;;;;1.52;0.43;;;14.80;99.90;;;;;;4979979;28;20595;-85
2023/08/31 09:37:28;;;;;;;1.35;0.45;;;14.90;99.90;;;;;;4947079;28;20592;-85
2023/08/31 09:39:54;;;;;;;2.90;0.60;;;14.90;99.90;;;;;;4962294;28;20081;-85
2023/08/31 09:42:20;;;;;;;0.73;0.40;;;15.40;99.90;;;;;;4978803;28;20567;-85
2023/08/31 09:44:49;;;;;;;1.67;0.80;;;15.80;99.90;;;;;;4945928;28;20034;-85
2023/08/31 09:47:16;;;;;;;1.73;0.80;;;15.90;99.90;;;;;;4962686;28;20634;-85
2023/08/31 09:49:43;;;;;;;1.48;0.60;;;16.20;99.90;;;;;;4978277;28;20046;-85
2023/08/31 09:52:11;;;;;;;1.08;0.73;;;16.30;99.90;;;;;;4947834;28;20084;-86
2023/08/31 09:54:37;;;;;;;3.15;0.80;;;16.50;99.90;;;;;;4960792;28;20129;-84
2023/08/31 09:57:10;;;;;;;1.48;0.60;;;17.00;99.90;;;;;;4954887;28;20130;-85
2023/08/31 09:59:38;;;;;;;1.85;0.65;;;17.40;99.90;;;;;;4958752;28;20192;-84
2023/08/31 10:02:03;;;;;;;2.33;0.70;;;17.70;99.90;;;;;;4946588;28;20542;-85
2023/08/31 10:04:32;;;;;;;2.00;0.75;;;18.10;99.90;;;;;;4945239;28;20052;-84
2023/08/31 10:06:58;;;;;;;1.90;0.82;;;18.30;99.90;;;;;;4957468;28;20042;-84
2023/08/31 10:09:24;;;;;;;2.15;0.80;;;18.10;99.90;;;;;;4958355;28;20050;-85
2023/08/31 10:11:50;;;;;;;1.83;0.90;;;18.10;99.90;;;;;;4973866;28;20426;-84
2023/08/31 10:14:17;;;;;;;2.53;0.60;;;17.10;99.90;;;;;;4976983;28;20537;-84
2023/08/31 10:16:44;;;;;;;2.80;1.00;;;16.50;99.90;;;;;;4945509;28;20089;-86
2023/08/31 10:19:10;;;;;;;1.73;0.55;;;16.30;99.90;;;;;;4948059;28;20486;-86
2023/08/31 10:21:37;;;;;;;3.50;0.88;;;16.30;99.90;;;;;;4976852;28;20089;-85
2023/08/31 10:24:04;;;;;;;1.30;0.50;;;16.40;99.90;;;;;;4944666;28;20075;-86
2023/08/31 10:26:31;;;;;;;1.55;0.75;;;16.50;99.90;;;;;;4959395;28;20046;-85
2023/08/31 10:28:58;;;;;;;1.65;0.80;;;16.80;99.90;;;;;;4958803;28;20054;-86
2023/08/31 10:31:31;;;;;;;2.10;0.75;;;17.20;99.90;;;;;;4963137;28;20038;-85
2023/08/31 10:33:59;;;;;;;1.08;0.60;;;17.30;99.90;;;;;;4963171;28;20128;-86
2023/08/31 10:36:40;;;;;;;2.97;0.73;;;17.70;99.90;;;;;;4961479;28;20087;-85
2023/08/31 10:39:17;;;;;;;1.15;0.40;;;17.80;99.90;;;;;;4962149;28;20426;-85
2023/08/31 10:41:54;;;;;;;2.28;0.80;;;18.30;99.90;;;;;;4944118;28;20485;-85
2023/08/31 10:44:25;;;;;;;2.65;0.82;;;17.90;99.90;;;;;;4961946;28;20068;-87
2023/08/31 10:46:53;;;;;;;2.85;0.80;;;17.90;99.90;;;;;;4978954;28;20521;-88
2023/08/31 10:49:23;;;;;;;1.67;0.80;;;18.30;99.90;;;;;;4965808;28;20081;-88
2023/08/31 10:51:57;;;;;;;3.00;0.82;;;18.70;99.90;;;;;;4942635;28;20042;-86
2023/08/31 10:54:30;;;;;;;3.17;0.77;;;18.50;99.90;;;;;;4963422;28;20053;-86
2023/08/31 10:57:18;;;;;;;4.60;1.00;;;18.70;99.90;;;;;;4946761;28;20050;-88
2023/08/31 10:59:51;;;;;;;5.05;0.75;;;18.10;99.90;;;;;;4958285;28;20125;-84
2023/08/31 11:02:50;;;;;;;1.95;0.52;;;17.80;99.90;;;;;;4945560;28;20120;-86
2023/08/31 11:05:19;;;;;;;6.28;1.00;;;18.40;99.90;;;;;;4923019;28;20050;-86
2023/08/31 11:07:47;;;;;;;3.38;0.85;;;18.50;99.90;;;;;;4960864;28;20062;-87
2023/08/31 11:10:22;;;;;;;1.40;0.55;;;18.90;99.90;;;;;;4946932;28;20569;-87
2023/08/31 11:12:57;;;;;;;1.40;0.60;;;19.30;99.90;;;;;;4977533;28;20050;-89
2023/08/31 11:15:30;;;;;;;1.45;0.70;;;19.20;99.90;;;;;;4958960;28;20069;-87
2023/08/31 11:17:56;;;;;;;4.10;0.70;;;19.20;99.90;;;;;;4957372;28;20101;-87
2023/08/31 11:20:23;;;;;;;2.65;0.80;;;18.90;99.90;;;;;;4977440;28;20133;-88
2023/08/31 11:22:53;;;;;;;2.15;0.60;;;18.30;99.90;;;;;;4971852;28;20050;-88
2023/08/31 11:25:20;;;;;;;1.65;0.70;;;18.00;99.90;;;;;;4962371;28;20448;-89
2023/08/31 11:28:04;;;;;;;1.50;0.43;;;18.40;99.90;;;;;;4945793;28;20180;-86
2023/08/31 11:30:31;;;;;;;2.08;0.68;;;18.90;99.90;;;;;;4974062;28;20153;-87
2023/08/31 11:32:57;;;;;;;2.15;0.50;;;18.90;99.90;;;;;;4964419;28;20462;-88
2023/08/31 11:35:24;;;;;;;1.08;0.65;;;18.90;99.90;;;;;;4963529;28;20046;-88
2023/08/31 11:37:55;;;;;;;1.08;0.68;;;19.40;99.90;;;;;;4947409;28;20046;-88
2023/08/31 11:40:21;;;;;;;1.73;0.75;;;19.70;99.90;;;;;;4963324;28;20073;-88
2023/08/31 11:42:49;;;;;;;2.33;0.85;;;20.30;99.90;;;;;;4959417;28;20629;-87
2023/08/31 11:45:16;;;;;;;2.72;0.80;;;19.60;99.90;;;;;;4955023;28;20057;-88
2023/08/31 11:47:43;;;;;;;4.05;0.90;;;19.30;99.90;;;;;;4947244;28;20402;-88
2023/08/31 11:50:10;;;;;;;4.10;0.77;;;18.90;99.90;;;;;;4948868;28;20372;-88
2023/08/31 11:52:36;;;;;;;2.63;0.70;;;18.90;99.90;;;;;;4945114;28;20038;-87
2023/08/31 11:55:03;;;;;;;1.00;0.65;;;18.60;99.90;;;;;;4961576;28;20048;-87
2023/08/31 11:57:28;;;;;;;3.22;0.77;;;19.20;99.90;;;;;;4947602;28;20039;-88
2023/08/31 11:59:58;;;;;;;3.65;1.00;;;19.50;99.90;;;;;;4962840;28;20393;-87
2023/08/31 12:02:24;;;;;;;2.17;0.88;;;20.00;99.90;;;;;;4945756;28;20117;-88
2023/08/31 12:04:49;;;;;;;2.85;0.63;;;20.40;99.90;;;;;;4943303;28;20520;-88
2023/08/31 12:07:19;;;;;;;1.45;0.60;;;20.10;99.90;;;;;;4954249;28;20098;-87
2023/08/31 12:09:46;;;;;;;1.98;0.88;;;20.00;99.90;;;;;;4956934;28;20050;-87
2023/08/31 12:12:21;;;;;;;2.38;0.65;;;19.80;99.90;;;;;;4953800;28;20094;-88
2023/08/31 12:14:47;;;;;;;3.08;0.68;;;19.40;99.90;;;;;;4956094;28;20099;-89
2023/08/31 12:17:13;;;;;;;2.08;0.75;;;19.30;99.90;;;;;;4958652;28;20091;-88
2023/08/31 12:19:39;;;;;;;1.55;0.47;;;18.90;99.90;;;;;;4974039;28;20039;-87
2023/08/31 12:22:12;;;;;;;3.67;0.60;;;18.60;99.90;;;;;;4942976;28;20047;-87
2023/08/31 12:24:40;;;;;;;2.58;0.88;;;18.30;99.90;;;;;;4954140;28;20042;-88
2023/08/31 12:27:07;;;;;;;2.60;0.77;;;18.10;99.90;;;;;;4957089;28;20069;-88
2023/08/31 12:29:35;;;;;;;1.67;0.50;;;17.90;99.90;;;;;;4950808;28;20122;-89
2023/08/31 12:32:02;;;;;;;1.23;0.55;;;17.70;99.90;;;;;;4976541;28;20101;-88
2023/08/31 12:34:27;;;;;;;1.42;0.80;;;17.70;99.90;;;;;;4958461;28;20058;-88
2023/08/31 12:36:54;;;;;;;1.25;0.55;;;17.90;99.90;;;;;;4957813;28;20633;-89
2023/08/31 12:39:19;;;;;;;1.00;0.50;;;18.30;99.90;;;;;;4959961;28;20095;-87
2023/08/31 12:41:45;;;;;;;1.85;0.77;;;19.00;99.90;;;;;;4957400;28;20095;-87
2023/08/31 12:44:11;;;;;;;2.03;0.70;;;19.10;99.90;;;;;;4959619;28;20047;-88
2023/08/31 12:46:36;;;;;;;1.55;0.50;;;19.70;99.90;;;;;;4954574;28;21454;-87
2023/08/31 12:49:06;;;;;;;1.10;0.68;;;19.80;99.90;;;;;;4959885;28;20390;-87